sensor_id;sensor_type;location;lat;lon;timestamp;P1;durP1;ratioP1;P2;durP2;ratioP2
43580;SDS011;29175;51.030;4.606;2023-10-31T00:00:45;46.28;;;15.02;;
43580;SDS011;29175;51.030;4.606;2023-10-31T00:03:12;41.58;;;15.73;;
43580;SDS011;29175;51.030;4.606;2023-10-31T00:05:37;43.10;;;15.55;;
43580;SDS011;29175;51.030;4.606;2023-10-31T00:08:09;51.45;;;17.48;;
43580;SDS011;29175;51.030;4.606;2023-10-31T00:10:36;52.53;;;18.52;;
43580;SDS011;29175;51.030;4.606;2023-10-31T00:13:01;60.63;;;18.73;;
43580;SDS011;29175;51.030;4.606;2023-10-31T00:15:27;56.75;;;18.70;;
43580;SDS011;29175;51.030;4.606;2023-10-31T00:17:55;56.75;;;19.02;;
43580;SDS011;29175;51.030;4.606;2023-10-31T00:20:22;53.03;;;18.65;;
43580;SDS011;29175;51.030;4.606;2023-10-31T00:22:49;51.90;;;18.38;;
43580;SDS011;29175;51.030;4.606;2023-10-31T00:25:14;53.10;;;17.98;;
43580;SDS011;29175;51.030;4.606;2023-10-31T00:27:42;57.15;;;18.77;;
43580;SDS011;29175;51.030;4.606;2023-10-31T00:30:08;54.47;;;18.80;;
43580;SDS011;29175;51.030;4.606;2023-10-31T00:32:35;57.72;;;20.38;;
43580;SDS011;29175;51.030;4.606;2023-10-31T00:35:02;62.60;;;20.77;;
43580;SDS011;29175;51.030;4.606;2023-10-31T00:37:29;65.05;;;21.40;;
43580;SDS011;29175;51.030;4.606;2023-10-31T00:39:56;66.63;;;22.40;;
43580;SDS011;29175;51.030;4.606;2023-10-31T00:42:23;71.47;;;21.63;;
43580;SDS011;29175;51.030;4.606;2023-10-31T00:44:50;72.57;;;22.15;;
43580;SDS011;29175;51.030;4.606;2023-10-31T00:47:16;76.55;;;23.75;;
43580;SDS011;29175;51.030;4.606;2023-10-31T00:49:44;73.28;;;22.92;;
43580;SDS011;29175;51.030;4.606;2023-10-31T00:52:10;67.85;;;23.10;;
43580;SDS011;29175;51.030;4.606;2023-10-31T00:54:37;71.85;;;25.05;;
43580;SDS011;29175;51.030;4.606;2023-10-31T00:57:02;85.65;;;25.00;;
43580;SDS011;29175;51.030;4.606;2023-10-31T00:59:29;73.80;;;24.13;;
43580;SDS011;29175;51.030;4.606;2023-10-31T01:01:58;72.95;;;23.60;;
43580;SDS011;29175;51.030;4.606;2023-10-31T01:04:23;69.40;;;23.17;;
43580;SDS011;29175;51.030;4.606;2023-10-31T01:06:51;60.92;;;21.55;;
43580;SDS011;29175;51.030;4.606;2023-10-31T01:09:19;63.15;;;22.15;;
43580;SDS011;29175;51.030;4.606;2023-10-31T01:11:46;65.78;;;21.98;;
43580;SDS011;29175;51.030;4.606;2023-10-31T01:14:11;58.90;;;20.35;;
43580;SDS011;29175;51.030;4.606;2023-10-31T01:16:37;62.50;;;21.60;;
43580;SDS011;29175;51.030;4.606;2023-10-31T01:19:04;56.88;;;20.00;;
43580;SDS011;29175;51.030;4.606;2023-10-31T01:21:31;61.63;;;20.27;;
43580;SDS011;29175;51.030;4.606;2023-10-31T01:23:58;57.80;;;20.58;;
43580;SDS011;29175;51.030;4.606;2023-10-31T01:26:24;63.38;;;21.42;;
43580;SDS011;29175;51.030;4.606;2023-10-31T01:28:51;56.30;;;20.25;;
43580;SDS011;29175;51.030;4.606;2023-10-31T01:31:19;65.13;;;20.77;;
43580;SDS011;29175;51.030;4.606;2023-10-31T01:33:45;59.47;;;20.35;;
43580;SDS011;29175;51.030;4.606;2023-10-31T01:36:12;54.25;;;19.45;;
43580;SDS011;29175;51.030;4.606;2023-10-31T01:38:40;58.53;;;20.88;;
43580;SDS011;29175;51.030;4.606;2023-10-31T01:41:09;45.28;;;16.58;;
43580;SDS011;29175;51.030;4.606;2023-10-31T01:43:35;47.33;;;16.73;;
43580;SDS011;29175;51.030;4.606;2023-10-31T01:46:08;45.75;;;16.58;;
43580;SDS011;29175;51.030;4.606;2023-10-31T01:48:35;38.70;;;15.20;;
43580;SDS011;29175;51.030;4.606;2023-10-31T01:51:06;39.60;;;14.30;;
43580;SDS011;29175;51.030;4.606;2023-10-31T01:56:02;34.00;;;13.93;;
43580;SDS011;29175;51.030;4.606;2023-10-31T01:58:36;37.45;;;14.43;;
43580;SDS011;29175;51.030;4.606;2023-10-31T02:01:04;38.40;;;14.02;;
43580;SDS011;29175;51.030;4.606;2023-10-31T02:08:29;33.38;;;13.63;;
43580;SDS011;29175;51.030;4.606;2023-10-31T02:10:57;32.42;;;13.57;;
43580;SDS011;29175;51.030;4.606;2023-10-31T02:13:26;37.47;;;12.45;;
43580;SDS011;29175;51.030;4.606;2023-10-31T02:15:55;36.78;;;12.57;;
43580;SDS011;29175;51.030;4.606;2023-10-31T02:18:22;33.72;;;13.35;;
43580;SDS011;29175;51.030;4.606;2023-10-31T02:20:49;30.63;;;13.02;;
43580;SDS011;29175;51.030;4.606;2023-10-31T02:23:15;35.92;;;13.02;;
43580;SDS011;29175;51.030;4.606;2023-10-31T02:25:41;35.25;;;12.13;;
43580;SDS011;29175;51.030;4.606;2023-10-31T02:28:07;34.70;;;12.30;;
43580;SDS011;29175;51.030;4.606;2023-10-31T02:30:39;35.67;;;12.40;;
43580;SDS011;29175;51.030;4.606;2023-10-31T02:33:08;28.85;;;11.20;;
43580;SDS011;29175;51.030;4.606;2023-10-31T02:35:36;26.70;;;11.48;;
43580;SDS011;29175;51.030;4.606;2023-10-31T02:38:02;26.60;;;11.25;;
43580;SDS011;29175;51.030;4.606;2023-10-31T02:40:29;25.40;;;11.35;;
43580;SDS011;29175;51.030;4.606;2023-10-31T02:42:56;30.95;;;12.75;;
43580;SDS011;29175;51.030;4.606;2023-10-31T02:45:23;31.00;;;11.50;;
43580;SDS011;29175;51.030;4.606;2023-10-31T02:47:49;32.08;;;12.88;;
43580;SDS011;29175;51.030;4.606;2023-10-31T02:50:16;31.08;;;11.95;;
43580;SDS011;29175;51.030;4.606;2023-10-31T02:52:44;23.45;;;11.00;;
43580;SDS011;29175;51.030;4.606;2023-10-31T02:57:45;31.77;;;11.75;;
43580;SDS011;29175;51.030;4.606;2023-10-31T03:00:10;30.45;;;11.95;;
43580;SDS011;29175;51.030;4.606;2023-10-31T03:02:39;27.02;;;11.32;;
43580;SDS011;29175;51.030;4.606;2023-10-31T03:05:04;28.52;;;11.02;;
43580;SDS011;29175;51.030;4.606;2023-10-31T03:07:31;27.13;;;11.32;;
43580;SDS011;29175;51.030;4.606;2023-10-31T03:09:56;25.98;;;10.50;;
43580;SDS011;29175;51.030;4.606;2023-10-31T03:12:25;30.92;;;11.30;;
43580;SDS011;29175;51.030;4.606;2023-10-31T03:14:53;26.92;;;11.00;;
43580;SDS011;29175;51.030;4.606;2023-10-31T03:17:19;25.60;;;10.88;;
43580;SDS011;29175;51.030;4.606;2023-10-31T03:19:50;33.22;;;12.90;;
43580;SDS011;29175;51.030;4.606;2023-10-31T03:22:17;24.35;;;10.93;;
43580;SDS011;29175;51.030;4.606;2023-10-31T03:24:43;31.05;;;11.95;;
43580;SDS011;29175;51.030;4.606;2023-10-31T03:27:10;34.05;;;12.30;;
43580;SDS011;29175;51.030;4.606;2023-10-31T03:32:04;30.00;;;11.80;;
43580;SDS011;29175;51.030;4.606;2023-10-31T03:34:32;30.77;;;11.50;;
43580;SDS011;29175;51.030;4.606;2023-10-31T03:36:58;29.55;;;11.93;;
43580;SDS011;29175;51.030;4.606;2023-10-31T03:39:27;32.15;;;12.43;;
43580;SDS011;29175;51.030;4.606;2023-10-31T03:41:59;32.58;;;13.05;;
43580;SDS011;29175;51.030;4.606;2023-10-31T03:44:28;30.02;;;11.68;;
43580;SDS011;29175;51.030;4.606;2023-10-31T03:46:53;31.85;;;12.85;;
43580;SDS011;29175;51.030;4.606;2023-10-31T03:49:21;35.88;;;12.57;;
43580;SDS011;29175;51.030;4.606;2023-10-31T03:51:47;32.10;;;12.52;;
43580;SDS011;29175;51.030;4.606;2023-10-31T03:54:14;28.25;;;11.68;;
43580;SDS011;29175;51.030;4.606;2023-10-31T03:56:40;34.90;;;11.57;;
43580;SDS011;29175;51.030;4.606;2023-10-31T03:59:10;25.88;;;10.95;;
43580;SDS011;29175;51.030;4.606;2023-10-31T04:01:39;28.75;;;11.85;;
43580;SDS011;29175;51.030;4.606;2023-10-31T04:04:06;35.53;;;12.00;;
43580;SDS011;29175;51.030;4.606;2023-10-31T04:06:33;28.23;;;11.23;;
43580;SDS011;29175;51.030;4.606;2023-10-31T04:08:59;26.15;;;11.30;;
43580;SDS011;29175;51.030;4.606;2023-10-31T04:11:24;25.20;;;10.95;;
43580;SDS011;29175;51.030;4.606;2023-10-31T04:13:53;24.75;;;10.00;;
43580;SDS011;29175;51.030;4.606;2023-10-31T04:18:48;23.50;;;10.10;;
43580;SDS011;29175;51.030;4.606;2023-10-31T04:21:15;24.60;;;10.57;;
43580;SDS011;29175;51.030;4.606;2023-10-31T04:23:42;27.27;;;10.95;;
43580;SDS011;29175;51.030;4.606;2023-10-31T04:26:08;25.77;;;11.27;;
43580;SDS011;29175;51.030;4.606;2023-10-31T04:28:36;20.63;;;9.82;;
43580;SDS011;29175;51.030;4.606;2023-10-31T04:31:02;21.45;;;9.90;;
43580;SDS011;29175;51.030;4.606;2023-10-31T04:35:58;27.17;;;10.98;;
43580;SDS011;29175;51.030;4.606;2023-10-31T04:38:26;26.20;;;10.25;;
43580;SDS011;29175;51.030;4.606;2023-10-31T04:40:54;25.80;;;10.63;;
43580;SDS011;29175;51.030;4.606;2023-10-31T04:45:51;24.08;;;10.60;;
43580;SDS011;29175;51.030;4.606;2023-10-31T04:48:17;25.50;;;10.60;;
43580;SDS011;29175;51.030;4.606;2023-10-31T04:53:13;32.97;;;10.43;;
43580;SDS011;29175;51.030;4.606;2023-10-31T04:55:38;26.40;;;10.15;;
43580;SDS011;29175;51.030;4.606;2023-10-31T04:58:07;26.73;;;11.55;;
43580;SDS011;29175;51.030;4.606;2023-10-31T05:00:34;24.08;;;10.00;;
43580;SDS011;29175;51.030;4.606;2023-10-31T05:03:00;23.13;;;10.50;;
43580;SDS011;29175;51.030;4.606;2023-10-31T05:05:29;25.27;;;10.80;;
43580;SDS011;29175;51.030;4.606;2023-10-31T05:07:56;28.02;;;11.27;;
43580;SDS011;29175;51.030;4.606;2023-10-31T05:10:25;32.78;;;11.52;;
43580;SDS011;29175;51.030;4.606;2023-10-31T05:12:53;28.33;;;11.23;;
43580;SDS011;29175;51.030;4.606;2023-10-31T05:15:19;28.95;;;10.90;;
43580;SDS011;29175;51.030;4.606;2023-10-31T05:17:46;31.92;;;11.90;;
43580;SDS011;29175;51.030;4.606;2023-10-31T05:20:13;29.05;;;12.23;;
43580;SDS011;29175;51.030;4.606;2023-10-31T05:22:40;26.02;;;11.80;;
43580;SDS011;29175;51.030;4.606;2023-10-31T05:25:06;28.60;;;12.43;;
43580;SDS011;29175;51.030;4.606;2023-10-31T05:27:35;30.42;;;13.05;;
43580;SDS011;29175;51.030;4.606;2023-10-31T05:30:00;34.08;;;12.80;;
43580;SDS011;29175;51.030;4.606;2023-10-31T05:32:29;39.45;;;13.48;;
43580;SDS011;29175;51.030;4.606;2023-10-31T05:34:56;37.13;;;13.95;;
43580;SDS011;29175;51.030;4.606;2023-10-31T05:37:22;37.53;;;14.68;;
43580;SDS011;29175;51.030;4.606;2023-10-31T05:39:49;37.30;;;14.63;;
43580;SDS011;29175;51.030;4.606;2023-10-31T05:42:16;37.20;;;14.45;;
43580;SDS011;29175;51.030;4.606;2023-10-31T05:44:44;38.92;;;14.48;;
43580;SDS011;29175;51.030;4.606;2023-10-31T05:47:11;38.70;;;15.77;;
43580;SDS011;29175;51.030;4.606;2023-10-31T05:49:37;37.55;;;14.52;;
43580;SDS011;29175;51.030;4.606;2023-10-31T05:52:03;42.83;;;15.60;;
43580;SDS011;29175;51.030;4.606;2023-10-31T05:54:30;44.63;;;16.33;;
43580;SDS011;29175;51.030;4.606;2023-10-31T05:56:56;41.17;;;14.50;;
43580;SDS011;29175;51.030;4.606;2023-10-31T05:59:21;41.25;;;14.88;;
43580;SDS011;29175;51.030;4.606;2023-10-31T06:01:47;48.55;;;15.68;;
43580;SDS011;29175;51.030;4.606;2023-10-31T06:04:14;41.67;;;15.77;;
43580;SDS011;29175;51.030;4.606;2023-10-31T06:06:40;43.83;;;15.65;;
43580;SDS011;29175;51.030;4.606;2023-10-31T06:09:08;41.00;;;15.80;;
43580;SDS011;29175;51.030;4.606;2023-10-31T06:11:36;45.75;;;16.80;;
43580;SDS011;29175;51.030;4.606;2023-10-31T06:14:08;51.80;;;17.42;;
43580;SDS011;29175;51.030;4.606;2023-10-31T06:16:40;53.22;;;18.50;;
43580;SDS011;29175;51.030;4.606;2023-10-31T06:19:07;45.65;;;16.88;;
43580;SDS011;29175;51.030;4.606;2023-10-31T06:21:33;52.95;;;18.55;;
43580;SDS011;29175;51.030;4.606;2023-10-31T06:23:59;53.40;;;18.67;;
43580;SDS011;29175;51.030;4.606;2023-10-31T06:28:54;48.10;;;18.15;;
43580;SDS011;29175;51.030;4.606;2023-10-31T06:31:21;58.00;;;18.10;;
43580;SDS011;29175;51.030;4.606;2023-10-31T06:33:48;51.50;;;18.85;;
43580;SDS011;29175;51.030;4.606;2023-10-31T06:36:17;53.85;;;18.58;;
43580;SDS011;29175;51.030;4.606;2023-10-31T06:38:43;62.47;;;20.25;;
43580;SDS011;29175;51.030;4.606;2023-10-31T06:41:10;55.17;;;19.35;;
43580;SDS011;29175;51.030;4.606;2023-10-31T06:43:37;52.53;;;18.40;;
43580;SDS011;29175;51.030;4.606;2023-10-31T06:46:03;45.40;;;18.05;;
43580;SDS011;29175;51.030;4.606;2023-10-31T06:48:30;58.42;;;18.45;;
43580;SDS011;29175;51.030;4.606;2023-10-31T06:50:57;50.80;;;17.27;;
43580;SDS011;29175;51.030;4.606;2023-10-31T06:53:25;55.83;;;17.33;;
43580;SDS011;29175;51.030;4.606;2023-10-31T06:55:52;59.55;;;19.20;;
43580;SDS011;29175;51.030;4.606;2023-10-31T06:58:18;53.45;;;18.20;;
43580;SDS011;29175;51.030;4.606;2023-10-31T07:00:43;51.53;;;17.40;;
43580;SDS011;29175;51.030;4.606;2023-10-31T07:03:09;52.40;;;17.83;;
43580;SDS011;29175;51.030;4.606;2023-10-31T07:05:39;46.97;;;16.92;;
43580;SDS011;29175;51.030;4.606;2023-10-31T07:08:05;46.90;;;17.10;;
43580;SDS011;29175;51.030;4.606;2023-10-31T07:10:31;46.28;;;17.42;;
43580;SDS011;29175;51.030;4.606;2023-10-31T07:12:58;47.80;;;16.95;;
43580;SDS011;29175;51.030;4.606;2023-10-31T07:15:24;41.35;;;15.25;;
43580;SDS011;29175;51.030;4.606;2023-10-31T07:17:50;47.53;;;16.92;;
43580;SDS011;29175;51.030;4.606;2023-10-31T07:20:16;44.08;;;17.13;;
43580;SDS011;29175;51.030;4.606;2023-10-31T07:22:42;54.20;;;17.25;;
43580;SDS011;29175;51.030;4.606;2023-10-31T07:25:08;57.33;;;17.27;;
43580;SDS011;29175;51.030;4.606;2023-10-31T07:27:34;48.97;;;17.33;;
43580;SDS011;29175;51.030;4.606;2023-10-31T07:30:01;46.40;;;16.83;;
43580;SDS011;29175;51.030;4.606;2023-10-31T07:32:27;52.17;;;17.17;;
43580;SDS011;29175;51.030;4.606;2023-10-31T07:34:54;48.20;;;16.92;;
43580;SDS011;29175;51.030;4.606;2023-10-31T07:37:20;47.53;;;16.83;;
43580;SDS011;29175;51.030;4.606;2023-10-31T07:39:45;50.60;;;16.70;;
43580;SDS011;29175;51.030;4.606;2023-10-31T07:42:11;47.50;;;16.63;;
43580;SDS011;29175;51.030;4.606;2023-10-31T07:44:37;46.20;;;16.63;;
43580;SDS011;29175;51.030;4.606;2023-10-31T07:47:02;42.10;;;15.23;;
43580;SDS011;29175;51.030;4.606;2023-10-31T07:49:28;44.55;;;15.55;;
43580;SDS011;29175;51.030;4.606;2023-10-31T07:51:54;40.50;;;16.08;;
43580;SDS011;29175;51.030;4.606;2023-10-31T07:54:19;35.88;;;14.60;;
43580;SDS011;29175;51.030;4.606;2023-10-31T07:56:45;34.22;;;15.00;;
43580;SDS011;29175;51.030;4.606;2023-10-31T07:59:11;33.30;;;13.90;;
43580;SDS011;29175;51.030;4.606;2023-10-31T08:01:36;34.95;;;14.13;;
43580;SDS011;29175;51.030;4.606;2023-10-31T08:04:02;35.13;;;14.07;;
43580;SDS011;29175;51.030;4.606;2023-10-31T08:06:28;32.92;;;12.73;;
43580;SDS011;29175;51.030;4.606;2023-10-31T08:08:54;30.13;;;11.95;;
43580;SDS011;29175;51.030;4.606;2023-10-31T08:11:20;29.33;;;12.13;;
43580;SDS011;29175;51.030;4.606;2023-10-31T08:13:45;33.17;;;12.27;;
43580;SDS011;29175;51.030;4.606;2023-10-31T08:16:16;28.98;;;12.00;;
43580;SDS011;29175;51.030;4.606;2023-10-31T08:18:46;26.65;;;10.85;;
43580;SDS011;29175;51.030;4.606;2023-10-31T08:21:13;25.00;;;11.00;;
43580;SDS011;29175;51.030;4.606;2023-10-31T08:23:38;23.65;;;10.68;;
43580;SDS011;29175;51.030;4.606;2023-10-31T08:26:04;23.77;;;10.93;;
43580;SDS011;29175;51.030;4.606;2023-10-31T08:28:30;28.13;;;11.13;;
43580;SDS011;29175;51.030;4.606;2023-10-31T08:30:56;25.90;;;10.90;;
43580;SDS011;29175;51.030;4.606;2023-10-31T08:33:22;30.42;;;10.45;;
43580;SDS011;29175;51.030;4.606;2023-10-31T08:35:48;22.13;;;9.80;;
43580;SDS011;29175;51.030;4.606;2023-10-31T08:38:14;19.33;;;9.32;;
43580;SDS011;29175;51.030;4.606;2023-10-31T08:40:40;22.83;;;10.85;;
43580;SDS011;29175;51.030;4.606;2023-10-31T08:43:06;19.75;;;9.80;;
43580;SDS011;29175;51.030;4.606;2023-10-31T08:45:32;24.55;;;11.00;;
43580;SDS011;29175;51.030;4.606;2023-10-31T08:47:59;23.48;;;8.27;;
43580;SDS011;29175;51.030;4.606;2023-10-31T08:50:25;21.70;;;9.05;;
43580;SDS011;29175;51.030;4.606;2023-10-31T08:52:50;18.67;;;8.65;;
43580;SDS011;29175;51.030;4.606;2023-10-31T08:55:16;19.30;;;8.13;;
43580;SDS011;29175;51.030;4.606;2023-10-31T08:57:42;19.98;;;8.27;;
43580;SDS011;29175;51.030;4.606;2023-10-31T09:00:08;19.00;;;7.78;;
43580;SDS011;29175;51.030;4.606;2023-10-31T09:02:34;16.42;;;8.38;;
43580;SDS011;29175;51.030;4.606;2023-10-31T09:05:00;14.48;;;7.72;;
43580;SDS011;29175;51.030;4.606;2023-10-31T09:07:26;17.65;;;7.38;;
43580;SDS011;29175;51.030;4.606;2023-10-31T09:09:52;11.05;;;6.55;;
43580;SDS011;29175;51.030;4.606;2023-10-31T09:12:18;19.63;;;7.47;;
43580;SDS011;29175;51.030;4.606;2023-10-31T09:14:45;13.20;;;7.18;;
43580;SDS011;29175;51.030;4.606;2023-10-31T09:17:10;18.02;;;7.70;;
43580;SDS011;29175;51.030;4.606;2023-10-31T09:19:37;17.30;;;7.32;;
43580;SDS011;29175;51.030;4.606;2023-10-31T09:22:02;18.52;;;7.25;;
43580;SDS011;29175;51.030;4.606;2023-10-31T09:24:28;17.00;;;6.93;;
43580;SDS011;29175;51.030;4.606;2023-10-31T09:26:54;13.15;;;7.15;;
43580;SDS011;29175;51.030;4.606;2023-10-31T09:29:20;15.27;;;7.30;;
43580;SDS011;29175;51.030;4.606;2023-10-31T09:31:45;22.15;;;7.30;;
43580;SDS011;29175;51.030;4.606;2023-10-31T09:34:12;16.33;;;6.82;;
43580;SDS011;29175;51.030;4.606;2023-10-31T09:36:39;19.05;;;6.95;;
43580;SDS011;29175;51.030;4.606;2023-10-31T09:39:04;10.95;;;5.93;;
43580;SDS011;29175;51.030;4.606;2023-10-31T09:41:31;12.52;;;5.82;;
43580;SDS011;29175;51.030;4.606;2023-10-31T09:43:57;14.82;;;6.38;;
43580;SDS011;29175;51.030;4.606;2023-10-31T09:46:23;13.30;;;6.47;;
43580;SDS011;29175;51.030;4.606;2023-10-31T09:48:49;11.60;;;5.22;;
43580;SDS011;29175;51.030;4.606;2023-10-31T09:51:15;15.90;;;5.97;;
43580;SDS011;29175;51.030;4.606;2023-10-31T09:53:41;13.00;;;4.85;;
43580;SDS011;29175;51.030;4.606;2023-10-31T09:56:09;11.20;;;5.07;;
43580;SDS011;29175;51.030;4.606;2023-10-31T09:58:35;11.70;;;5.13;;
43580;SDS011;29175;51.030;4.606;2023-10-31T10:01:02;10.68;;;5.22;;
43580;SDS011;29175;51.030;4.606;2023-10-31T10:03:28;12.52;;;5.45;;
43580;SDS011;29175;51.030;4.606;2023-10-31T10:05:54;11.23;;;4.97;;
43580;SDS011;29175;51.030;4.606;2023-10-31T10:08:21;12.52;;;5.57;;
43580;SDS011;29175;51.030;4.606;2023-10-31T10:10:47;16.65;;;5.13;;
43580;SDS011;29175;51.030;4.606;2023-10-31T10:13:16;7.65;;;4.10;;
43580;SDS011;29175;51.030;4.606;2023-10-31T10:15:46;14.30;;;4.53;;
43580;SDS011;29175;51.030;4.606;2023-10-31T10:18:30;12.77;;;5.05;;
43580;SDS011;29175;51.030;4.606;2023-10-31T10:20:58;13.50;;;4.93;;
43580;SDS011;29175;51.030;4.606;2023-10-31T10:23:25;10.73;;;5.07;;
43580;SDS011;29175;51.030;4.606;2023-10-31T10:25:52;10.68;;;4.80;;
43580;SDS011;29175;51.030;4.606;2023-10-31T10:28:18;10.73;;;4.57;;
43580;SDS011;29175;51.030;4.606;2023-10-31T10:30:48;19.25;;;4.85;;
43580;SDS011;29175;51.030;4.606;2023-10-31T10:33:14;12.65;;;4.70;;
43580;SDS011;29175;51.030;4.606;2023-10-31T10:35:41;10.60;;;4.47;;
43580;SDS011;29175;51.030;4.606;2023-10-31T10:38:10;12.40;;;4.25;;
43580;SDS011;29175;51.030;4.606;2023-10-31T10:40:46;10.75;;;4.70;;
43580;SDS011;29175;51.030;4.606;2023-10-31T10:43:26;13.13;;;4.80;;
43580;SDS011;29175;51.030;4.606;2023-10-31T10:48:21;10.40;;;4.85;;
43580;SDS011;29175;51.030;4.606;2023-10-31T10:50:49;14.18;;;4.78;;
43580;SDS011;29175;51.030;4.606;2023-10-31T10:53:25;14.23;;;4.75;;
43580;SDS011;29175;51.030;4.606;2023-10-31T10:55:59;12.77;;;5.40;;
43580;SDS011;29175;51.030;4.606;2023-10-31T10:58:37;10.30;;;4.63;;
43580;SDS011;29175;51.030;4.606;2023-10-31T11:01:26;15.27;;;4.93;;
43580;SDS011;29175;51.030;4.606;2023-10-31T11:03:53;23.20;;;5.13;;
43580;SDS011;29175;51.030;4.606;2023-10-31T11:06:20;12.60;;;4.50;;
43580;SDS011;29175;51.030;4.606;2023-10-31T11:08:46;12.05;;;4.40;;
43580;SDS011;29175;51.030;4.606;2023-10-31T11:11:12;12.60;;;4.97;;
43580;SDS011;29175;51.030;4.606;2023-10-31T11:13:41;11.93;;;4.32;;
43580;SDS011;29175;51.030;4.606;2023-10-31T11:16:11;11.45;;;4.20;;
43580;SDS011;29175;51.030;4.606;2023-10-31T11:18:42;9.60;;;4.13;;
43580;SDS011;29175;51.030;4.606;2023-10-31T11:21:08;14.07;;;3.83;;
43580;SDS011;29175;51.030;4.606;2023-10-31T11:23:35;14.32;;;4.43;;
43580;SDS011;29175;51.030;4.606;2023-10-31T11:26:01;16.10;;;4.75;;
43580;SDS011;29175;51.030;4.606;2023-10-31T11:28:27;13.25;;;4.78;;
43580;SDS011;29175;51.030;4.606;2023-10-31T11:30:52;12.18;;;3.95;;
43580;SDS011;29175;51.030;4.606;2023-10-31T11:33:24;12.93;;;5.22;;
43580;SDS011;29175;51.030;4.606;2023-10-31T11:35:50;14.32;;;4.10;;
43580;SDS011;29175;51.030;4.606;2023-10-31T11:38:37;11.60;;;4.32;;
43580;SDS011;29175;51.030;4.606;2023-10-31T11:41:03;18.10;;;4.80;;
43580;SDS011;29175;51.030;4.606;2023-10-31T11:43:45;14.65;;;4.05;;
43580;SDS011;29175;51.030;4.606;2023-10-31T11:46:18;12.73;;;4.25;;
43580;SDS011;29175;51.030;4.606;2023-10-31T11:48:47;11.60;;;4.25;;
43580;SDS011;29175;51.030;4.606;2023-10-31T11:51:15;19.13;;;5.00;;
43580;SDS011;29175;51.030;4.606;2023-10-31T11:53:41;23.98;;;5.65;;
43580;SDS011;29175;51.030;4.606;2023-10-31T11:56:09;20.05;;;5.97;;
43580;SDS011;29175;51.030;4.606;2023-10-31T11:58:36;14.68;;;6.18;;
43580;SDS011;29175;51.030;4.606;2023-10-31T12:01:06;14.35;;;6.32;;
43580;SDS011;29175;51.030;4.606;2023-10-31T12:03:42;23.98;;;6.65;;
43580;SDS011;29175;51.030;4.606;2023-10-31T12:06:12;16.33;;;7.10;;
43580;SDS011;29175;51.030;4.606;2023-10-31T12:08:39;21.17;;;7.60;;
43580;SDS011;29175;51.030;4.606;2023-10-31T12:13:36;23.45;;;8.98;;
43580;SDS011;29175;51.030;4.606;2023-10-31T12:16:03;22.48;;;9.27;;
43580;SDS011;29175;51.030;4.606;2023-10-31T12:18:30;22.75;;;8.95;;
43580;SDS011;29175;51.030;4.606;2023-10-31T12:20:56;25.67;;;8.68;;
43580;SDS011;29175;51.030;4.606;2023-10-31T12:23:21;24.38;;;8.90;;
43580;SDS011;29175;51.030;4.606;2023-10-31T12:25:47;22.60;;;9.20;;
43580;SDS011;29175;51.030;4.606;2023-10-31T12:28:21;27.80;;;9.13;;
43580;SDS011;29175;51.030;4.606;2023-10-31T12:30:48;24.75;;;9.48;;
43580;SDS011;29175;51.030;4.606;2023-10-31T12:33:15;23.40;;;8.93;;
43580;SDS011;29175;51.030;4.606;2023-10-31T12:35:42;25.92;;;8.52;;
43580;SDS011;29175;51.030;4.606;2023-10-31T12:38:12;23.48;;;8.73;;
43580;SDS011;29175;51.030;4.606;2023-10-31T12:40:39;21.67;;;8.52;;
43580;SDS011;29175;51.030;4.606;2023-10-31T12:43:06;21.38;;;8.65;;
43580;SDS011;29175;51.030;4.606;2023-10-31T12:45:32;24.98;;;8.85;;
43580;SDS011;29175;51.030;4.606;2023-10-31T12:48:01;21.98;;;8.95;;
43580;SDS011;29175;51.030;4.606;2023-10-31T12:50:32;20.50;;;8.02;;
43580;SDS011;29175;51.030;4.606;2023-10-31T12:52:59;17.85;;;7.78;;
43580;SDS011;29175;51.030;4.606;2023-10-31T12:55:28;17.67;;;6.85;;
43580;SDS011;29175;51.030;4.606;2023-10-31T12:57:54;24.58;;;7.07;;
43580;SDS011;29175;51.030;4.606;2023-10-31T13:00:21;17.58;;;7.25;;
43580;SDS011;29175;51.030;4.606;2023-10-31T13:02:51;17.30;;;6.45;;
43580;SDS011;29175;51.030;4.606;2023-10-31T13:05:24;16.83;;;6.75;;
43580;SDS011;29175;51.030;4.606;2023-10-31T13:07:52;14.18;;;6.47;;
43580;SDS011;29175;51.030;4.606;2023-10-31T13:10:20;25.17;;;7.25;;
43580;SDS011;29175;51.030;4.606;2023-10-31T13:12:47;17.58;;;7.05;;
43580;SDS011;29175;51.030;4.606;2023-10-31T13:15:13;19.23;;;6.90;;
43580;SDS011;29175;51.030;4.606;2023-10-31T13:17:41;20.50;;;6.00;;
43580;SDS011;29175;51.030;4.606;2023-10-31T13:20:08;15.38;;;6.32;;
43580;SDS011;29175;51.030;4.606;2023-10-31T13:22:35;16.25;;;6.57;;
43580;SDS011;29175;51.030;4.606;2023-10-31T13:25:02;15.20;;;5.80;;
43580;SDS011;29175;51.030;4.606;2023-10-31T13:27:45;16.23;;;6.38;;
43580;SDS011;29175;51.030;4.606;2023-10-31T13:32:42;16.55;;;5.45;;
43580;SDS011;29175;51.030;4.606;2023-10-31T13:35:08;14.77;;;5.85;;
43580;SDS011;29175;51.030;4.606;2023-10-31T13:37:39;14.55;;;6.00;;
43580;SDS011;29175;51.030;4.606;2023-10-31T13:40:04;11.90;;;5.32;;
43580;SDS011;29175;51.030;4.606;2023-10-31T13:42:33;11.15;;;4.75;;
43580;SDS011;29175;51.030;4.606;2023-10-31T13:44:59;16.35;;;6.30;;
43580;SDS011;29175;51.030;4.606;2023-10-31T13:47:25;10.60;;;5.13;;
43580;SDS011;29175;51.030;4.606;2023-10-31T13:49:50;9.95;;;4.82;;
43580;SDS011;29175;51.030;4.606;2023-10-31T13:52:16;13.13;;;4.78;;
43580;SDS011;29175;51.030;4.606;2023-10-31T13:54:42;11.50;;;4.97;;
43580;SDS011;29175;51.030;4.606;2023-10-31T13:57:08;11.32;;;4.78;;
43580;SDS011;29175;51.030;4.606;2023-10-31T13:59:34;13.38;;;5.30;;
43580;SDS011;29175;51.030;4.606;2023-10-31T14:01:59;10.93;;;5.03;;
43580;SDS011;29175;51.030;4.606;2023-10-31T14:04:25;10.05;;;4.75;;
43580;SDS011;29175;51.030;4.606;2023-10-31T14:06:51;7.78;;;4.22;;
43580;SDS011;29175;51.030;4.606;2023-10-31T14:09:16;10.07;;;4.28;;
43580;SDS011;29175;51.030;4.606;2023-10-31T14:11:42;17.05;;;5.45;;
43580;SDS011;29175;51.030;4.606;2023-10-31T14:14:08;10.52;;;4.53;;
43580;SDS011;29175;51.030;4.606;2023-10-31T14:16:39;8.75;;;4.40;;
43580;SDS011;29175;51.030;4.606;2023-10-31T14:19:06;9.75;;;4.32;;
43580;SDS011;29175;51.030;4.606;2023-10-31T14:21:33;9.50;;;4.47;;
43580;SDS011;29175;51.030;4.606;2023-10-31T14:23:59;13.70;;;4.50;;
43580;SDS011;29175;51.030;4.606;2023-10-31T14:26:26;7.50;;;4.40;;
43580;SDS011;29175;51.030;4.606;2023-10-31T14:28:52;15.48;;;4.93;;
43580;SDS011;29175;51.030;4.606;2023-10-31T14:31:18;11.05;;;4.03;;
43580;SDS011;29175;51.030;4.606;2023-10-31T14:33:45;10.45;;;5.32;;
43580;SDS011;29175;51.030;4.606;2023-10-31T14:36:11;12.73;;;5.30;;
43580;SDS011;29175;51.030;4.606;2023-10-31T14:38:38;11.30;;;5.18;;
43580;SDS011;29175;51.030;4.606;2023-10-31T14:41:05;7.97;;;4.90;;
43580;SDS011;29175;51.030;4.606;2023-10-31T14:43:30;12.93;;;5.43;;
43580;SDS011;29175;51.030;4.606;2023-10-31T14:45:56;16.83;;;4.47;;
43580;SDS011;29175;51.030;4.606;2023-10-31T14:48:22;8.85;;;4.95;;
43580;SDS011;29175;51.030;4.606;2023-10-31T14:50:48;12.07;;;4.85;;
43580;SDS011;29175;51.030;4.606;2023-10-31T14:53:15;12.82;;;5.03;;
43580;SDS011;29175;51.030;4.606;2023-10-31T14:55:41;16.55;;;5.45;;
43580;SDS011;29175;51.030;4.606;2023-10-31T14:58:07;13.25;;;5.55;;
43580;SDS011;29175;51.030;4.606;2023-10-31T15:00:35;14.98;;;4.97;;